Latest Weather Observations for Mount Bundey South (Defence)

IDD60801

Issued at 5:31 pm CST Sunday 15 September 2019 (issued every 10 minutes, with the page automatically refreshed every 10 minutes)

About weather observations | Map of weather stations | Latest weather observations for NT | Other Formats
Station Details ID: 014984 Name: MOUNT BUNDEY SOUTH (DEFENCE) Lat: -13.09 Lon: 131.85 Height: 55.0 m
Data from the previous 72 hours. | See also: Recent months at Mount Bundey South (Defence)
Date/Time
CST
Temp
°C
App
Temp
°C
Dew
Point
°C
Rel
Hum
%
Delta-T
°C
Wind Press
QNH
hPa
Press
MSL
hPa
Rain since
9am
mm
Dir  Spd
km/h
Gust
km/h
Spd
kts
Gust
kts
15/05:00pm 33.8 31.0 7.0 19 14.7 E 11 20 6 11 1013.6 1013.3 0.0
15/04:30pm 33.6 31.5 6.8 19 14.7 NE 7 17 4 9 1013.5 1013.2 0.0
15/04:00pm 33.8 30.8 7.7 20 14.5 ENE 13 22 7 12 1013.5 1013.2 0.0
15/03:30pm 33.6 30.8 6.8 19 14.7 ESE 11 24 6 13 1013.6 1013.3 0.0
15/03:00pm 34.0 30.5 7.1 19 14.8 ESE 15 22 8 12 1013.7 1013.4 0.0
15/02:30pm 33.3 29.4 7.3 20 14.3 E 17 32 9 17 1014.2 1013.9 0.0
15/02:00pm 33.3 29.6 8.0 21 14.1 ENE 17 32 9 17 1014.5 1014.2 0.0
15/01:30pm 32.6 28.6 8.1 22 13.6 ESE 19 32 10 17 1015.1 1014.8 0.0
15/01:00pm 32.4 29.6 8.6 23 13.3 ESE 13 33 7 18 1015.3 1015.0 0.0
15/12:30pm 31.7 28.2 8.7 24 12.8 ESE 17 32 9 17 1015.9 1015.6 0.0
15/12:00pm 31.6 27.7 8.6 24 12.8 ESE 19 32 10 17 1016.5 1016.2 0.0
15/11:30am 30.4 26.5 8.7 26 12.0 E 19 33 10 18 1017.1 1016.8 0.0
15/11:00am 30.3 25.8 8.7 26 12.0 ESE 22 37 12 20 1017.5 1017.2 0.0
15/10:30am 29.1 24.6 8.7 28 11.2 ESE 22 39 12 21 1018.0 1017.7 0.0
15/10:00am 28.6 24.9 9.3 30 10.7 E 19 35 10 19 1018.3 1018.0 0.0
15/09:30am 27.4 23.1 9.3 32 10.0 E 22 37 12 20 1018.8 1018.5 0.0
15/09:00am 26.5 23.2 9.4 34 9.4 E 17 30 9 16 1019.0 1018.7 0.0
15/08:30am 24.9 22.4 8.0 34 9.0 E 11 19 6 10 1019.0 1018.7 0.0
15/08:00am 23.3 20.5 7.0 35 8.5 ESE 11 17 6 9 1018.8 1018.5 0.0
15/07:30am 21.8 20.4 9.7 46 6.5 ESE 7 9 4 5 1018.7 1018.4 0.0
15/07:25am 21.5 20.5 10.3 49 6.1 E 6 9 3 5 1018.7 1018.4 0.0
15/07:00am 16.5 17.4 12.8 79 2.1 CALM 0 0 0 0 1018.5 1018.2 0.0
15/06:30am 16.6 17.5 12.9 79 2.1 CALM 0 0 0 0 1018.1 1017.8 0.0
15/06:00am 17.3 18.0 14.6 84 1.6 SE 4 6 2 3 1017.9 1017.6 0.0
15/05:30am 16.6 17.3 13.5 82 1.7 SE 2 4 1 2 1017.8 1017.5 0.0
15/05:00am 16.8 17.7 12.9 78 2.2 CALM 0 0 0 0 1017.8 1017.5 0.0
15/04:30am 17.8 18.8 13.1 74 2.6 CALM 0 0 0 0 1017.4 1017.1 0.0
15/04:00am 18.4 19.6 13.9 75 2.6 CALM 0 0 0 0 1017.1 1016.8 0.0
15/03:30am 19.0 20.1 13.4 70 3.2 CALM 0 0 0 0 1017.2 1016.9 0.0
15/03:00am 19.7 20.7 13.2 66 3.7 CALM 0 0 0 0 1017.3 1017.0 0.0
15/02:30am 20.4 21.7 14.1 67 3.7 CALM 0 0 0 0 1017.2 1016.9 0.0
15/02:00am 20.9 22.1 13.8 64 4.1 CALM 0 0 0 0 1017.3 1017.0 0.0
15/01:30am 21.4 22.6 13.8 62 4.4 CALM 0 0 0 0 1017.5 1017.2 0.0
15/01:00am 22.1 23.3 13.7 59 4.9 CALM 0 0 0 0 1017.6 1017.3 0.0
15/12:30am 22.1 23.3 13.7 59 4.9 CALM 0 0 0 0 1017.8 1017.5 0.0
15/12:00am 22.4 23.5 13.5 57 5.1 CALM 0 0 0 0 1018.2 1017.9 0.0
 
Date/Time
CST
Temp
°C
App
Temp
°C
Dew
Point
°C
Rel
Hum
%
Delta-T
°C
Wind Press
QNH
hPa
Press
MSL
hPa
Rain since
9am
mm
Dir  Spd
km/h
Gust
km/h
Spd
kts
Gust
kts
14/11:30pm 22.7 23.8 13.5 56 5.3 CALM 0 2 0 1 1018.1 1017.8 0.0
14/11:00pm 23.1 24.1 13.3 54 5.7 CALM 0 0 0 0 1017.8 1017.5 0.0
14/10:30pm 24.1 25.2 13.6 52 6.1 CALM 0 2 0 1 1017.3 1017.0 0.0
14/10:00pm 24.7 25.7 13.3 49 6.7 CALM 0 2 0 1 1017.1 1016.8 0.0
14/09:30pm 25.9 27.1 13.7 47 7.2 CALM 0 2 0 1 1016.9 1016.6 0.0
14/09:00pm 26.8 26.8 13.5 44 7.9 NNW 6 7 3 4 1016.3 1016.0 0.0
14/08:30pm 27.5 26.9 12.3 39 8.8 NNW 7 13 4 7 1016.1 1015.8 0.0
14/08:00pm 28.9 27.6 7.5 26 11.6 NE 4 15 2 8 1015.7 1015.4 0.0
14/07:30pm 29.7 28.6 7.0 24 12.2 ENE 2 6 1 3 1015.2 1014.9 0.0
14/07:00pm 31.4 29.8 6.5 21 13.4 E 4 6 2 3 1014.9 1014.6 0.0
14/06:30pm 32.4 30.9 6.6 20 14.0 ESE 4 7 2 4 1014.6 1014.3 0.0
14/06:00pm 33.1 30.9 6.4 19 14.5 ENE 7 11 4 6 1014.4 1014.1 0.0
14/05:30pm 33.8 30.8 6.2 18 15.0 ENE 11 20 6 11 1014.1 1013.8 0.0
14/05:00pm 33.8 30.1 6.2 18 15.0 E 15 28 8 15 1014.0 1013.7 0.0
14/04:30pm 34.2 30.9 6.5 18 15.1 E 13 22 7 12 1014.0 1013.7 0.0
14/04:00pm 34.1 31.2 6.4 18 15.1 ESE 11 20 6 11 1014.1 1013.8 0.0
14/03:30pm 33.9 31.3 6.3 18 15.0 ESE 9 19 5 10 1014.1 1013.8 0.0
14/03:00pm 33.4 30.1 6.6 19 14.6 E 13 22 7 12 1014.4 1014.1 0.0
14/02:30pm 33.3 29.9 5.8 18 14.8 E 13 24 7 13 1014.8 1014.5 0.0
14/02:00pm 32.9 29.2 6.2 19 14.4 SE 15 28 8 15 1015.4 1015.1 0.0
14/01:30pm 33.2 29.5 6.5 19 14.5 ENE 15 28 8 15 1016.0 1015.7 0.0
14/01:00pm 32.5 27.9 6.7 20 14.0 ENE 20 43 11 23 1016.6 1016.3 0.0
14/12:30pm 32.1 28.4 6.3 20 13.9 E 15 30 8 16 1017.4 1017.1 0.0
14/12:00pm 31.7 27.1 6.7 21 13.5 E 20 35 11 19 1017.9 1017.6 0.0
14/11:30am 31.3 26.8 7.1 22 13.1 SE 20 35 11 19 1018.5 1018.2 0.0
14/11:00am 30.1 25.5 6.7 23 12.6 E 20 35 11 19 1019.0 1018.7 0.0
14/10:30am 29.6 24.6 6.3 23 12.4 E 22 41 12 22 1019.4 1019.1 0.0
14/10:00am 28.7 24.8 7.3 26 11.5 ESE 17 30 9 16 1020.0 1019.6 0.0
14/09:30am 28.0 23.8 7.3 27 11.1 E 19 35 10 19 1020.4 1020.0 0.0
14/09:00am 26.4 24.3 8.4 32 9.7 ESE 9 15 5 8 1020.5 1020.1 0.0
14/08:30am 23.9 22.6 9.1 39 8.0 SSE 6 7 3 4 1020.5 1020.1 0.0
14/08:00am 21.9 21.0 9.4 45 6.7 SE 4 7 2 4 1020.3 1019.9 0.0
14/07:30am 17.1 17.0 9.5 61 4.0 CALM 0 4 0 2 1020.1 1019.7 0.0
14/07:00am 15.6 15.6 9.7 68 3.1 CALM 0 0 0 0 1019.6 1019.3 0.0
14/06:30am 15.6 15.5 9.3 66 3.2 CALM 0 0 0 0 1019.2 1018.9 0.0
14/06:00am 16.0 15.8 9.2 64 3.5 CALM 0 0 0 0 1018.9 1018.6 0.0
14/05:30am 16.1 15.8 8.8 62 3.7 CALM 0 0 0 0 1018.7 1018.4 0.0
14/05:00am 16.9 16.8 9.3 61 4.0 CALM 0 0 0 0 1018.6 1018.3 0.0
14/04:30am 16.9 16.5 8.3 57 4.4 CALM 0 0 0 0 1018.4 1018.1 0.0
14/04:00am 17.5 17.3 8.9 57 4.5 CALM 0 0 0 0 1018.1 1017.8 0.0
14/03:30am 17.8 17.4 8.4 54 4.8 CALM 0 0 0 0 1018.0 1017.7 0.0
14/03:00am 18.5 18.3 9.0 54 5.0 CALM 0 0 0 0 1018.0 1017.7 0.0
14/02:30am 19.3 19.3 9.8 54 5.1 CALM 0 0 0 0 1018.1 1017.8 0.0
14/02:00am 19.7 19.3 8.1 47 6.0 CALM 0 0 0 0 1018.1 1017.8 0.0
14/01:30am 20.4 20.0 8.1 45 6.4 CALM 0 0 0 0 1018.1 1017.8 0.0
14/01:00am 22.2 21.6 10.4 47 6.5 N 4 6 2 3 1018.1 1017.8 0.0
14/12:30am 23.0 23.1 10.1 44 7.1 CALM 0 4 0 2 1018.1 1017.8 0.0
14/12:00am 24.0 22.8 8.0 36 8.5 N 4 6 2 3 1018.2 1017.9 0.0
 
Date/Time
CST
Temp
°C
App
Temp
°C
Dew
Point
°C
Rel
Hum
%
Delta-T
°C
Wind Press
QNH
hPa
Press
MSL
hPa
Rain since
9am
mm
Dir  Spd
km/h
Gust
km/h
Spd
kts
Gust
kts
13/11:30pm 24.9 23.4 5.2 28 10.0 N 2 4 1 2 1018.1 1017.8 0.0
13/11:00pm 26.5 23.9 4.3 24 11.2 NNE 7 13 4 7 1018.1 1017.8 0.0
13/10:30pm 26.6 24.1 3.8 23 11.4 ESE 6 9 3 5 1017.7 1017.4 0.0
13/10:00pm 26.5 24.1 4.3 24 11.2 ESE 6 9 3 5 1017.6 1017.3 0.0
13/09:30pm 26.0 24.0 4.5 25 10.8 SE 4 7 2 4 1017.3 1017.0 0.0
13/09:00pm 27.2 25.3 4.9 24 11.4 E 4 7 2 4 1016.9 1016.6 0.0
13/08:30pm 27.9 25.9 4.2 22 12.0 ESE 4 4 2 2 1016.6 1016.3 0.0
13/08:00pm 29.1 27.0 3.9 20 12.8 SE 4 7 2 4 1016.2 1015.9 0.0
13/07:30pm 29.8 27.7 3.7 19 13.3 SE 4 6 2 3 1016.0 1015.7 0.0
13/07:00pm 31.2 29.1 4.1 18 14.0 SE 4 9 2 5 1015.6 1015.3 0.0
13/06:30pm 32.4 30.0 4.2 17 14.7 ESE 6 11 3 6 1015.0 1014.7 0.0
13/06:00pm 33.2 30.3 4.9 17 15.0 SE 9 15 5 8 1014.7 1014.4 0.0
13/05:30pm 33.6 30.6 4.3 16 15.4 ESE 9 17 5 9 1014.6 1014.3 0.0
13/05:00pm 33.6 30.4 5.2 17 15.2 SE 11 20 6 11 1014.5 1014.2 0.0
13/04:30pm 33.8 30.7 5.4 17 15.2 SE 11 20 6 11 1014.4 1014.1 0.0
13/04:00pm 33.6 30.0 5.2 17 15.2 ESE 13 26 7 14 1014.7 1014.4 0.0
13/03:30pm 33.4 30.4 5.9 18 14.8 SE 11 26 6 14 1014.9 1014.6 0.0
13/03:00pm 33.4 29.2 5.9 18 14.8 ENE 17 28 9 15 1015.3 1015.0 0.0
13/02:30pm 32.8 28.7 4.6 17 14.8 SE 15 26 8 14 1015.9 1015.6 0.0
13/02:00pm 32.6 28.7 5.2 18 14.5 ESE 15 32 8 17 1016.4 1016.1 0.0
13/01:30pm 33.2 29.4 4.0 16 15.2 NE 13 33 7 18 1016.9 1016.6 0.0
13/01:00pm 31.6 27.4 3.6 17 14.4 E 15 28 8 15 1017.6 1017.3 0.0
13/12:30pm 31.7 26.4 2.8 16 14.6 ESE 20 35 11 19 1018.3 1018.0 0.0
13/12:00pm 30.8 25.3 2.1 16 14.3 ENE 20 37 11 20 1018.9 1018.6 0.0
13/11:30am 30.0 25.0 4.6 20 13.1 ESE 20 39 11 21 1019.3 1019.0 0.0
13/11:00am 29.9 25.2 5.9 22 12.7 ESE 20 32 11 17 1020.0 1019.6 0.0
13/10:30am 29.2 24.2 6.6 24 12.0 ESE 22 37 12 20 1020.3 1019.9 0.0
13/10:00am 28.1 23.6 6.8 26 11.3 E 20 35 11 19 1020.7 1020.3 0.0
13/09:30am 27.3 23.3 6.7 27 10.9 E 17 26 9 14 1021.0 1020.6 0.0
13/09:00am 25.6 23.0 7.7 32 9.5 ESE 11 17 6 9 1021.1 1020.7 0.0
13/08:30am 23.8 22.7 9.8 41 7.6 SE 6 9 3 5 1020.9 1020.5 0.0
13/08:00am 20.5 21.5 13.2 63 4.2 CALM 0 4 0 2 1020.7 1020.3 0.0
13/07:30am 16.7 17.6 13.0 79 2.1 CALM 0 0 0 0 1020.3 1019.9 0.0
13/07:00am 15.2 15.8 12.0 81 1.7 CALM 0 0 0 0 1019.7 1019.4 0.0
13/06:30am 16.1 17.1 13.2 83 1.6 CALM 0 0 0 0 1019.5 1019.2 0.0
13/06:00am 16.5 17.6 13.4 82 1.7 CALM 0 0 0 0 1019.0 1018.7 0.0
13/05:30am 16.1 16.8 12.1 77 2.2 CALM 0 0 0 0 1018.7 1018.4 0.0
13/05:00am 16.5 17.1 11.9 74 2.5 CALM 0 0 0 0 1018.7 1018.4 0.0
13/04:30am 17.2 17.2 11.2 68 3.2 SE 2 2 1 1 1018.6 1018.3 0.0
13/04:00am 17.9 18.2 12.1 69 3.2 SE 2 4 1 2 1018.6 1018.3 0.0
13/03:30am 18.2 18.6 12.4 69 3.2 ESE 2 6 1 3 1018.7 1018.4 0.0
13/03:00am 18.9 20.0 13.5 71 3.1 CALM 0 0 0 0 1018.7 1018.4 0.0
13/02:30am 18.7 19.5 12.5 67 3.5 CALM 0 2 0 1 1018.7 1018.4 0.0
13/02:00am 18.5 18.6 10.3 59 4.4 CALM 0 0 0 0 1018.7 1018.4 0.0
13/01:30am 19.0 18.9 9.5 54 5.0 CALM 0 0 0 0 1018.5 1018.2 0.0
13/01:00am 20.4 20.6 10.5 53 5.4 CALM 0 4 0 2 1018.7 1018.4 0.0
13/12:30am 20.9 21.8 12.8 60 4.6 CALM 0 2 0 1 1018.9 1018.6 0.0
13/12:00am 20.6 20.5 9.5 49 5.9 CALM 0 0 0 0 1019.0 1018.7 0.0
 
Date/Time
CST
Temp
°C
App
Temp
°C
Dew
Point
°C
Rel
Hum
%
Delta-T
°C
Wind Press
QNH
hPa
Press
MSL
hPa
Rain since
9am
mm
Dir  Spd
km/h
Gust
km/h
Spd
kts
Gust
kts
12/11:30pm 21.1 21.0 9.4 47 6.2 CALM 0 2 0 1 1019.0 1018.7 0.0
12/11:00pm 22.2 22.2 9.7 45 6.8 CALM 0 2 0 1 1018.7 1018.4 0.0
12/10:30pm 22.9 22.9 9.7 43 7.2 CALM 0 0 0 0 1018.5 1018.2 0.0
12/10:00pm 24.1 24.0 9.3 39 8.0 CALM 0 4 0 2 1018.4 1018.1 0.0
12/09:30pm 24.4 22.4 4.2 27 10.0 ENE 4 13 2 7 1017.9 1017.6 0.0
12/09:00pm 24.1 22.4 4.0 27 9.9 E 2 4 1 2 1017.6 1017.3 0.0
12/08:30pm 25.4 23.7 4.0 25 10.6 SSE 2 4 1 2 1017.3 1017.0 0.0
12/08:00pm 26.4 24.7 4.2 24 11.2 SSE 2 4 1 2 1017.0 1016.7 0.0
12/07:30pm 28.2 26.0 3.1 20 12.5 E 4 6 2 3 1016.6 1016.3 0.0
12/07:00pm 30.3 28.0 2.5 17 13.9 E 4 6 2 3 1016.1 1015.8 0.0
12/06:30pm 31.5 28.5 1.8 15 14.8 E 7 13 4 7 1015.6 1015.3 0.0
12/06:00pm 32.4 29.3 1.5 14 15.4 E 7 17 4 9 1015.4 1015.1 0.0

Other formats

Comma delimited format used in spreadsheet applications
http://www.bom.gov.au/fwo/IDD60801/IDD60801.94112.axf

JavaScript Object Notation format (JSON) in row-major order
http://www.bom.gov.au/fwo/IDD60801/IDD60801.94112.json

Data quality

Most of these data are generated automatically and are frequently updated. Quality checks on data are not normally performed. It is possible for incorrect values to appear. Refer to information at About Latest Weather Observations and please check the disclaimer before using these data.